Time;durP1;ratioP1;P1;durP2;ratioP2;P2;SDS_P1;SDS_P2;PMS_P1;PMS_P2;Temp;Humidity;BMP_temperature;BMP_pressure;BME280_temperature;BME280_humidity;BME280_pressure;Samples;Min_cycle;Max_cycle;Signal;HPM_P1;HPM_P2
2023/03/13 00:00:59;;;;;;;;;;;;;;;16.02;62.96;101337.81;7402084;19;2472;-43
2023/03/13 00:03:27;;;;;;;;;;;;;;;16.02;63.23;101339.63;7402849;19;1820;-43
2023/03/13 00:05:59;;;;;;;;;;;;;;;16.02;63.12;101339.63;7401503;19;2000;-43
2023/03/13 00:08:30;;;;;;;;;;;;;;;16.00;62.55;101344.22;7400925;19;1808;-43
2023/03/13 00:11:03;;;;;;;;;;;;;;;16.02;63.00;101358.31;7403112;19;1710;-43
2023/03/13 00:13:32;;;;;;;;;;;;;;;16.00;63.01;101350.41;7401745;19;1849;-43
2023/03/13 00:16:03;;;;;;;;;;;;;;;16.01;62.21;101356.56;7402945;19;1778;-43
2023/03/13 00:18:32;;;;;;;;;;;;;;;15.99;62.47;101355.81;7401876;19;1861;-43
2023/03/13 00:21:01;;;;;;;;;;;;;;;15.99;63.00;101355.81;7401656;19;2036;-43
2023/03/13 00:23:30;;;;;;;;;;;;;;;15.99;63.02;101369.16;7401154;19;1810;-43
2023/03/13 00:26:02;;;;;;;;;;;;;;;16.00;62.98;101363.72;7400016;19;1800;-43
2023/03/13 00:28:31;;;;;;;;;;;;;;;15.94;63.28;101361.47;7401395;19;1804;-43
2023/03/13 00:31:03;;;;;;;;;;;;;;;16.00;62.94;101370.88;7401652;19;1972;-43
2023/03/13 00:33:33;;;;;;;;;;;;;;;15.96;62.53;101364.03;7401920;19;1847;-43
2023/03/13 00:36:01;;;;;;;;;;;;;;;16.00;63.29;101381.56;7402261;19;1829;-43
2023/03/13 00:38:30;;;;;;;;;;;;;;;15.97;62.51;101373.75;7400514;19;2054;-43
2023/03/13 00:41:06;;;;;;;;;;;;;;;15.96;62.66;101374.72;7401158;19;1905;-43
2023/03/13 00:43:35;;;;;;;;;;;;;;;15.93;62.93;101364.22;7401610;19;1838;-43
2023/03/13 00:46:03;;;;;;;;;;;;;;;15.95;62.45;101373.00;7401283;19;1800;-43
2023/03/13 00:48:32;;;;;;;;;;;;;;;15.91;62.25;101361.66;7401666;19;1961;-43
2023/03/13 00:51:01;;;;;;;;;;;;;;;15.90;62.61;101371.47;7401630;19;1984;-43
2023/03/13 00:53:29;;;;;;;;;;;;;;;15.91;62.68;101381.19;7400448;19;2004;-43
2023/03/13 00:55:58;;;;;;;;;;;;;;;15.88;62.87;101370.72;7401671;19;1829;-43
2023/03/13 00:58:31;;;;;;;;;;;;;;;15.87;63.04;101374.34;7400856;19;1986;-43
2023/03/13 01:00:59;;;;;;;;;;;;;;;15.87;62.52;101376.16;7400904;19;1905;-43
2023/03/13 01:03:28;;;;;;;;;;;;;;;15.86;62.67;101388.66;7401148;19;1714;-43
2023/03/13 01:06:02;;;;;;;;;;;;;;;15.83;62.75;101375.50;7400839;19;1995;-43
2023/03/13 01:08:31;;;;;;;;;;;;;;;15.82;62.52;101376.47;7399130;19;1669;-43
2023/03/13 01:11:00;;;;;;;;;;;;;;;15.85;62.66;101397.59;7400866;19;1712;-43
2023/03/13 01:13:32;;;;;;;;;;;;;;;15.87;62.72;101389.50;7400748;19;1981;-43
2023/03/13 01:16:03;;;;;;;;;;;;;;;15.81;62.21;101393.41;7401018;19;1613;-43
2023/03/13 01:18:31;;;;;;;;;;;;;;;15.81;62.24;101377.41;7400929;19;1851;-43
2023/03/13 01:21:00;;;;;;;;;;;;;;;15.83;62.53;101396.81;7400147;19;1774;-43
2023/03/13 01:23:28;;;;;;;;;;;;;;;15.81;62.47;101396.06;7400465;19;2114;-43
2023/03/13 01:25:57;;;;;;;;;;;;;;;15.81;62.59;101388.06;7400183;19;2121;-43
2023/03/13 01:28:26;;;;;;;;;;;;;;;15.82;62.56;101387.13;7399698;19;1798;-43
2023/03/13 01:30:57;;;;;;;;;;;;;;;15.83;61.74;101395.97;7400100;19;2142;-43
2023/03/13 01:33:25;;;;;;;;;;;;;;;15.81;61.94;101393.41;7400303;19;1814;-43
2023/03/13 01:35:54;;;;;;;;;;;;;;;15.80;62.45;101407.72;7400963;19;1749;-43
2023/03/13 01:38:22;;;;;;;;;;;;;;;15.81;62.11;101397.88;7398024;19;2003;-43
2023/03/13 01:40:50;;;;;;;;;;;;;;;15.82;62.29;101407.63;7400107;19;2017;-43
2023/03/13 01:43:21;;;;;;;;;;;;;;;15.75;61.86;101393.81;7400224;19;1632;-43
2023/03/13 01:46:00;;;;;;;;;;;;;;;15.76;62.43;101405.34;7399890;19;1739;-43
2023/03/13 01:48:31;;;;;;;;;;;;;;;15.76;61.94;101422.19;7400473;19;2610;-43
2023/03/13 01:51:02;;;;;;;;;;;;;;;15.76;61.74;101411.53;7399736;19;1879;-43
2023/03/13 01:53:31;;;;;;;;;;;;;;;15.76;62.19;101400.88;7399306;19;1951;-43
2023/03/13 01:56:01;;;;;;;;;;;;;;;15.74;62.03;101397.44;7399388;19;2077;-43
2023/03/13 01:58:30;;;;;;;;;;;;;;;15.75;62.31;101424.97;7398839;19;1861;-43
2023/03/13 02:01:02;;;;;;;;;;;;;;;15.74;62.52;101432.09;7399322;19;2144;-43
2023/03/13 02:03:31;;;;;;;;;;;;;;;15.79;62.59;101431.81;7399925;19;1805;-43
2023/03/13 02:06:00;;;;;;;;;;;;;;;15.75;62.49;101433.81;7399429;19;1814;-43
2023/03/13 02:08:32;;;;;;;;;;;;;;;15.73;62.63;101421.53;7397658;19;2001;-43
2023/03/13 02:11:06;;;;;;;;;;;;;;;15.72;62.17;101420.66;7399092;19;1796;-43
2023/03/13 02:13:34;;;;;;;;;;;;;;;15.63;62.04;101422.06;7398114;19;1712;-43
2023/03/13 02:16:05;;;;;;;;;;;;;;;15.69;61.69;101443.00;7399930;19;1622;-43
2023/03/13 02:18:34;;;;;;;;;;;;;;;15.73;62.79;101437.53;7399667;19;1855;-43
2023/03/13 02:21:07;;;;;;;;;;;;;;;16.08;61.63;101433.44;7399045;19;1748;-43
2023/03/13 02:23:40;;;;;;;;;;;;;;;16.03;61.86;101443.53;7398614;19;1747;-43
2023/03/13 02:26:12;;;;;;;;;;;;;;;15.86;62.31;101443.81;7398556;19;1963;-43
2023/03/13 02:28:40;;;;;;;;;;;;;;;16.37;60.93;101445.81;7396350;19;1829;-43
2023/03/13 02:31:09;;;;;;;;;;;;;;;16.92;59.72;101431.44;7397370;19;1832;-43
2023/03/13 02:33:40;;;;;;;;;;;;;;;17.42;58.39;101437.75;7397838;19;2183;-43
2023/03/13 02:36:09;;;;;;;;;;;;;;;17.77;57.75;101430.84;7398836;19;1826;-43
2023/03/13 02:38:47;;;;;;;;;;;;;;;17.95;57.24;101444.75;7397940;19;1848;-43
2023/03/13 02:41:19;;;;;;;;;;;;;;;18.04;56.98;101433.34;7398023;19;1774;-43
2023/03/13 02:43:48;;;;;;;;;;;;;;;18.24;56.51;101451.47;7398004;19;1788;-43
2023/03/13 02:46:17;;;;;;;;;;;;;;;18.31;56.39;101443.00;7398596;19;1884;-43
2023/03/13 02:48:46;;;;;;;;;;;;;;;18.35;55.98;101450.66;7399244;19;1905;-43
2023/03/13 02:51:17;;;;;;;;;;;;;;;18.33;56.23;101449.09;7405663;19;1782;-43
2023/03/13 02:53:46;;;;;;;;;;;;;;;18.15;56.61;101443.28;7405579;19;2177;-43
2023/03/13 02:56:16;;;;;;;;;;;;;;;17.96;57.25;101463.34;7405418;19;1975;-43
2023/03/13 02:58:47;;;;;;;;;;;;;;;17.91;57.06;101478.03;7403717;19;1870;-43
2023/03/13 03:01:16;;;;;;;;;;;;;;;17.92;56.98;101487.75;7403889;19;2018;-43
2023/03/13 03:03:44;;;;;;;;;;;;;;;17.86;57.58;101486.38;7403352;19;2362;-43
2023/03/13 03:06:12;;;;;;;;;;;;;;;17.92;57.23;101493.13;7397927;19;1762;-43
2023/03/13 03:08:42;;;;;;;;;;;;;;;17.94;56.79;101475.13;7403687;19;2186;-43
2023/03/13 03:11:11;;;;;;;;;;;;;;;18.04;57.05;101492.22;7404270;19;1836;-43
2023/03/13 03:13:39;;;;;;;;;;;;;;;18.03;57.16;101474.47;7404951;19;1805;-43
2023/03/13 03:16:12;;;;;;;;;;;;;;;18.03;56.96;101487.84;7405004;19;1984;-43
2023/03/13 03:18:40;;;;;;;;;;;;;;;18.12;56.81;101495.19;7404905;19;1875;-43
2023/03/13 03:21:09;;;;;;;;;;;;;;;18.05;57.03;101491.28;7404084;19;1710;-43
2023/03/13 03:23:37;;;;;;;;;;;;;;;18.09;56.44;101498.13;7403393;19;1944;-43
2023/03/13 03:26:07;;;;;;;;;;;;;;;18.11;56.83;101514.91;7404184;19;2288;-43
2023/03/13 03:28:35;;;;;;;;;;;;;;;18.07;56.59;101508.91;7404628;19;1912;-43
2023/03/13 03:31:05;;;;;;;;;;;;;;;18.07;56.78;101502.72;7402363;19;1708;-43
2023/03/13 03:33:36;;;;;;;;;;;;;;;18.08;56.91;101525.81;7402417;19;1945;-43
2023/03/13 03:36:06;;;;;;;;;;;;;;;18.13;56.75;101522.84;7400171;19;1810;-43
2023/03/13 03:38:34;;;;;;;;;;;;;;;18.11;56.51;101530.13;7403879;19;1799;-43
2023/03/13 03:41:03;;;;;;;;;;;;;;;18.11;56.42;101530.97;7402304;19;1837;-43
2023/03/13 03:43:31;;;;;;;;;;;;;;;18.16;56.38;101542.19;7404120;19;1650;-44
2023/03/13 03:45:59;;;;;;;;;;;;;;;18.15;56.42;101537.81;7403449;19;1793;-43
2023/03/13 03:48:28;;;;;;;;;;;;;;;18.16;56.52;101547.53;7403158;19;2038;-43
2023/03/13 03:50:58;;;;;;;;;;;;;;;18.25;56.06;101559.41;7402646;19;1765;-43
2023/03/13 03:53:27;;;;;;;;;;;;;;;18.20;56.07;101562.41;7402980;19;1966;-43
2023/03/13 03:55:56;;;;;;;;;;;;;;;18.22;56.02;101567.66;7403033;19;1648;-43
2023/03/13 03:58:24;;;;;;;;;;;;;;;18.24;56.45;101568.41;7403264;19;1802;-43
2023/03/13 04:00:52;;;;;;;;;;;;;;;18.22;56.13;101560.50;7400775;19;1853;-43
2023/03/13 04:03:21;;;;;;;;;;;;;;;18.37;55.76;101577.25;7402857;19;1979;-43
2023/03/13 04:05:49;;;;;;;;;;;;;;;18.60;55.30;101575.59;7402492;19;1819;-43
2023/03/13 04:08:20;;;;;;;;;;;;;;;18.72;55.33;101573.84;7401378;19;1853;-43
2023/03/13 04:10:48;;;;;;;;;;;;;;;18.79;55.16;101584.94;7400209;19;1786;-43
2023/03/13 04:13:16;;;;;;;;;;;;;;;18.72;55.49;101595.25;7402226;19;1639;-43
2023/03/13 04:15:45;;;;;;;;;;;;;;;18.65;55.41;101583.28;7402118;19;1905;-43
2023/03/13 04:18:13;;;;;;;;;;;;;;;18.64;55.74;101593.16;7402261;19;1971;-43
2023/03/13 04:20:41;;;;;;;;;;;;;;;18.69;55.43;101596.31;7400891;19;1975;-43
2023/03/13 04:23:10;;;;;;;;;;;;;;;18.71;55.20;101600.72;7401864;19;1704;-43
2023/03/13 04:25:41;;;;;;;;;;;;;;;18.78;55.36;101605.53;7401542;19;1974;-43
2023/03/13 04:28:10;;;;;;;;;;;;;;;18.77;55.33;101608.31;7402302;19;1977;-43
2023/03/13 04:30:38;;;;;;;;;;;;;;;18.74;55.64;101619.25;7401591;19;1799;-43
2023/03/13 04:33:06;;;;;;;;;;;;;;;18.72;55.36;101623.84;7403079;19;1781;-43
2023/03/13 04:35:35;;;;;;;;;;;;;;;18.59;55.58;101627.44;7402333;19;2183;-43
2023/03/13 04:38:03;;;;;;;;;;;;;;;18.47;55.66;101617.63;7400846;19;1818;-43
2023/03/13 04:40:31;;;;;;;;;;;;;;;18.38;56.26;101626.31;7400677;19;1914;-43
2023/03/13 04:43:02;;;;;;;;;;;;;;;18.31;56.44;101641.97;7401914;19;1789;-43
2023/03/13 04:45:30;;;;;;;;;;;;;;;18.34;56.52;101632.84;7401644;19;1855;-43
2023/03/13 04:47:59;;;;;;;;;;;;;;;18.58;55.68;101635.59;7401634;19;1801;-43
2023/03/13 04:50:27;;;;;;;;;;;;;;;18.54;55.75;101628.75;7400788;19;1837;-43
2023/03/13 04:52:55;;;;;;;;;;;;;;;18.63;55.58;101631.59;7401345;19;1817;-43
2023/03/13 04:55:23;;;;;;;;;;;;;;;18.71;55.27;101638.25;7401238;19;2091;-43
2023/03/13 04:57:52;;;;;;;;;;;;;;;18.83;55.21;101642.72;7400710;19;1973;-43
2023/03/13 05:00:23;;;;;;;;;;;;;;;18.92;54.98;101644.75;7398291;19;1975;-43
2023/03/13 05:02:52;;;;;;;;;;;;;;;18.96;54.65;101639.97;7400659;19;2002;-43
2023/03/13 05:05:20;;;;;;;;;;;;;;;18.92;55.04;101654.56;7401865;19;1632;-43
2023/03/13 05:07:48;;;;;;;;;;;;;;;18.88;55.30;101659.34;7398372;19;1781;-43
2023/03/13 05:10:17;;;;;;;;;;;;;;;18.83;55.30;101666.84;7397892;19;1921;-43
2023/03/13 05:12:45;;;;;;;;;;;;;;;18.67;55.24;101661.72;7395961;19;2136;-43
2023/03/13 05:15:13;;;;;;;;;;;;;;;18.58;55.90;101660.56;7399404;19;2068;-43
2023/03/13 05:17:44;;;;;;;;;;;;;;;18.66;55.77;101668.91;7397616;19;1879;-43
2023/03/13 05:20:13;;;;;;;;;;;;;;;18.68;55.25;101645.53;7398993;19;2134;-43
2023/03/13 05:22:41;;;;;;;;;;;;;;;18.61;55.36;101671.03;7397214;19;1844;-43
2023/03/13 05:25:10;;;;;;;;;;;;;;;18.64;55.25;101670.84;7399896;19;2087;-43
2023/03/13 05:27:38;;;;;;;;;;;;;;;18.14;56.42;101669.94;7398984;19;2089;-43
2023/03/13 05:30:07;;;;;;;;;;;;;;;17.72;57.42;101673.75;7401766;19;2090;-43
2023/03/13 05:32:35;;;;;;;;;;;;;;;18.11;59.31;101672.84;7400065;19;1609;-43
2023/03/13 05:35:06;;;;;;;;;;;;;;;20.79;53.77;101668.75;7399137;19;2142;-43
2023/03/13 05:37:35;;;;;;;;;;;;;;;22.40;49.88;101662.31;7399887;19;2063;-43
2023/03/13 05:40:03;;;;;;;;;;;;;;;22.49;50.53;101653.44;7399161;19;1843;-43
2023/03/13 05:42:31;;;;;;;;;;;;;;;20.70;54.84;101674.91;7399920;19;2061;-43
2023/03/13 05:45:00;;;;;;;;;;;;;;;19.62;58.36;101680.63;7397089;19;1787;-44
2023/03/13 05:47:28;;;;;;;;;;;;;;;18.69;59.79;101682.06;7398354;19;1838;-44
2023/03/13 05:49:56;;;;;;;;;;;;;;;18.21;60.37;101675.72;7398414;19;2582;-45
2023/03/13 05:52:27;;;;;;;;;;;;;;;17.85;60.16;101696.06;7398374;19;2178;-44
2023/03/13 05:54:55;;;;;;;;;;;;;;;17.73;59.91;101692.38;7397462;19;1908;-44
2023/03/13 05:57:24;;;;;;;;;;;;;;;17.46;55.85;101693.25;7398513;19;1122;-43
2023/03/13 05:59:52;;;;;;;;;;;;;;;17.23;54.24;101693.94;7399620;19;2251;-44
2023/03/13 06:02:20;;;;;;;;;;;;;;;17.06;51.13;101693.22;7399606;19;2130;-43
2023/03/13 06:04:48;;;;;;;;;;;;;;;16.96;50.98;101708.16;7397638;19;1926;-43
2023/03/13 06:07:17;;;;;;;;;;;;;;;16.93;50.08;101718.16;7397811;19;1678;-43
2023/03/13 06:09:48;;;;;;;;;;;;;;;16.93;51.46;101716.38;7398292;19;1669;-43
2023/03/13 06:12:16;;;;;;;;;;;;;;;16.87;48.15;101716.75;7389645;19;1705;-43
2023/03/13 06:14:44;;;;;;;;;;;;;;;16.85;46.00;101708.84;7397280;19;1949;-43
2023/03/13 06:17:12;;;;;;;;;;;;;;;16.85;45.64;101715.97;7395746;19;1737;-43
2023/03/13 06:19:41;;;;;;;;;;;;;;;16.90;46.37;101708.53;7396944;19;1921;-43
2023/03/13 06:22:09;;;;;;;;;;;;;;;16.87;45.95;101719.41;7398028;19;1792;-44
2023/03/13 06:24:37;;;;;;;;;;;;;;;16.88;44.17;101705.13;7372067;19;1948;-43
2023/03/13 06:27:08;;;;;;;;;;;;;;;16.88;45.73;101710.47;7351433;19;2045;-44
2023/03/13 06:29:37;;;;;;;;;;;;;;;16.92;45.86;101708.44;7405933;19;1649;-43
2023/03/13 06:32:05;;;;;;;;;;;;;;;16.96;46.41;101708.16;7404213;19;2243;-43
2023/03/13 06:34:33;;;;;;;;;;;;;;;17.01;46.31;101705.16;7405884;19;1690;-43
2023/03/13 06:37:02;;;;;;;;;;;;;;;17.01;48.10;101695.34;7404887;19;1757;-43
2023/03/13 06:39:31;;;;;;;;;;;;;;;17.05;48.52;101682.63;7407226;19;2049;-43
2023/03/13 06:41:59;;;;;;;;;;;;;;;17.05;48.93;101680.84;7403875;19;2088;-44
2023/03/13 06:44:31;;;;;;;;;;;;;;;17.10;48.69;101683.19;7405693;19;1954;-44
2023/03/13 06:46:59;;;;;;;;;;;;;;;17.06;48.45;101677.19;7405897;19;1881;-43
2023/03/13 06:49:28;;;;;;;;;;;;;;;17.20;48.45;101672.75;7407074;19;1784;-43
2023/03/13 06:51:59;;;;;;;;;;;;;;;17.23;48.32;101660.06;7406934;19;1159;-43
2023/03/13 06:54:27;;;;;;;;;;;;;;;17.17;47.82;101667.59;7407030;19;2227;-44
2023/03/13 06:56:55;;;;;;;;;;;;;;;17.16;48.55;101676.59;7400571;19;2862;-44
2023/03/13 06:59:24;;;;;;;;;;;;;;;16.94;49.17;101671.81;7405519;19;1827;-44
2023/03/13 07:01:55;;;;;;;;;;;;;;;16.69;46.79;101671.53;7403202;19;2074;-44
2023/03/13 07:04:23;;;;;;;;;;;;;;;16.69;45.89;101679.56;7405221;19;1957;-44
2023/03/13 07:06:52;;;;;;;;;;;;;;;16.53;46.05;101684.13;7403210;19;1990;-44
2023/03/13 07:09:21;;;;;;;;;;;;;;;16.48;46.29;101680.91;7404778;19;1736;-44
2023/03/13 07:11:49;;;;;;;;;;;;;;;16.33;43.53;101689.88;7405138;19;1579;-44
2023/03/13 07:14:18;;;;;;;;;;;;;;;16.26;42.76;101703.59;7404563;19;1542;-44
2023/03/13 07:16:46;;;;;;;;;;;;;;;16.43;45.00;101696.34;7404517;19;1758;-44
2023/03/13 07:19:17;;;;;;;;;;;;;;;16.60;42.29;101680.13;7405503;19;2190;-44
2023/03/13 07:21:46;;;;;;;;;;;;;;;15.97;41.30;101675.19;7404308;19;1853;-43
2023/03/13 07:24:14;;;;;;;;;;;;;;;16.20;44.52;101677.31;7404030;19;1640;-44
2023/03/13 07:26:42;;;;;;;;;;;;;;;16.24;41.92;101672.63;7404603;19;2150;-43
2023/03/13 07:29:11;;;;;;;;;;;;;;;16.12;40.80;101676.91;7404337;19;1936;-44
2023/03/13 07:31:39;;;;;;;;;;;;;;;16.21;44.76;101679.00;7403903;19;1920;-44
2023/03/13 07:34:07;;;;;;;;;;;;;;;15.80;41.04;101689.56;7404879;19;1855;-44
2023/03/13 07:36:40;;;;;;;;;;;;;;;15.87;41.19;101685.53;7402016;19;1752;-44
2023/03/13 07:39:08;;;;;;;;;;;;;;;16.30;42.13;101656.22;7402745;19;1585;-44
2023/03/13 07:41:37;;;;;;;;;;;;;;;16.75;41.90;101672.97;7402762;19;1860;-44
2023/03/13 07:44:05;;;;;;;;;;;;;;;16.94;43.04;101661.13;7405149;19;1904;-44
2023/03/13 07:46:33;;;;;;;;;;;;;;;16.98;43.49;101668.81;7403562;19;2305;-44
2023/03/13 07:49:02;;;;;;;;;;;;;;;17.11;43.82;101668.91;7403668;19;1618;-44
2023/03/13 07:51:30;;;;;;;;;;;;;;;17.36;44.57;101665.44;7402996;19;1943;-44
2023/03/13 07:54:01;;;;;;;;;;;;;;;18.19;43.68;101662.44;7403044;19;1664;-44
2023/03/13 07:56:29;;;;;;;;;;;;;;;19.19;42.24;101657.88;7403330;19;1819;-44
2023/03/13 07:58:57;;;;;;;;;;;;;;;19.25;42.59;101672.66;7403534;19;2049;-44
2023/03/13 08:01:27;;;;;;;;;;;;;;;18.81;43.17;101682.19;7401137;19;1862;-44
2023/03/13 08:03:55;;;;;;;;;;;;;;;18.45;44.78;101683.84;7402427;19;1511;-44
2023/03/13 08:06:24;;;;;;;;;;;;;;;18.57;45.19;101666.88;7402812;19;1902;-44
2023/03/13 08:08:54;;;;;;;;;;;;;;;19.29;44.42;101671.47;7402208;19;1775;-44
2023/03/13 08:11:26;;;;;;;;;;;;;;;19.55;44.08;101668.63;7401211;19;1780;-44
2023/03/13 08:13:55;;;;;;;;;;;;;;;19.64;44.70;101671.47;7401932;19;1845;-44
2023/03/13 08:16:24;;;;;;;;;;;;;;;19.76;44.56;101668.88;7403456;19;1702;-44
2023/03/13 08:18:53;;;;;;;;;;;;;;;19.66;44.94;101644.53;7402555;19;1684;-45
2023/03/13 08:21:23;;;;;;;;;;;;;;;19.63;45.25;101663.53;7401762;19;1856;-45
2023/03/13 08:23:54;;;;;;;;;;;;;;;19.68;45.50;101672.94;7402699;19;2097;-45
2023/03/13 08:26:26;;;;;;;;;;;;;;;19.70;45.76;101661.25;7400752;19;1867;-45
2023/03/13 08:28:57;;;;;;;;;;;;;;;19.73;46.08;101648.47;7403223;19;1739;-45
2023/03/13 08:31:27;;;;;;;;;;;;;;;19.62;45.89;101643.91;7399652;19;2140;-45
2023/03/13 08:33:55;;;;;;;;;;;;;;;19.72;46.38;101656.66;7399839;19;1850;-45
2023/03/13 08:36:24;;;;;;;;;;;;;;;19.84;46.45;101655.69;7401698;19;1818;-44
2023/03/13 08:38:53;;;;;;;;;;;;;;;19.63;46.17;101652.81;7402326;19;1800;-44
2023/03/13 08:41:22;;;;;;;;;;;;;;;19.42;46.00;101652.63;7401812;19;1862;-45
2023/03/13 08:43:53;;;;;;;;;;;;;;;19.57;46.20;101640.72;7402105;19;1899;-45
2023/03/13 08:46:22;;;;;;;;;;;;;;;19.70;46.26;101637.94;7400879;19;1914;-45
2023/03/13 08:48:50;;;;;;;;;;;;;;;19.71;46.47;101645.03;7400670;19;1751;-45
2023/03/13 08:51:19;;;;;;;;;;;;;;;19.46;46.21;101646.06;7400702;19;1667;-45
2023/03/13 08:53:48;;;;;;;;;;;;;;;19.32;45.85;101635.50;7402555;19;1422;-45
2023/03/13 08:56:17;;;;;;;;;;;;;;;19.46;48.55;101652.28;7400591;19;2230;-45
2023/03/13 08:58:46;;;;;;;;;;;;;;;19.64;47.80;101628.53;7400140;19;2024;-44
2023/03/13 09:01:17;;;;;;;;;;;;;;;19.97;47.90;101648.38;7400678;19;1987;-44
2023/03/13 09:03:45;;;;;;;;;;;;;;;20.01;47.62;101638.25;7399288;19;2037;-44
2023/03/13 09:06:14;;;;;;;;;;;;;;;20.04;47.42;101624.59;7400927;19;1876;-44
2023/03/13 09:08:42;;;;;;;;;;;;;;;19.99;47.71;101619.56;7402040;19;1568;-44
2023/03/13 09:11:11;;;;;;;;;;;;;;;19.91;47.77;101623.84;7400509;19;1999;-44
2023/03/13 09:13:40;;;;;;;;;;;;;;;19.89;47.88;101629.34;7401121;19;2169;-44
2023/03/13 09:16:10;;;;;;;;;;;;;;;19.83;48.05;101622.63;7401530;19;2175;-44
2023/03/13 09:18:40;;;;;;;;;;;;;;;19.88;48.26;101632.16;7399207;19;1891;-44
2023/03/13 09:21:10;;;;;;;;;;;;;;;19.95;48.00;101638.75;7398031;19;1861;-44
2023/03/13 09:23:38;;;;;;;;;;;;;;;19.96;48.46;101640.47;7398336;19;1841;-44
2023/03/13 09:26:07;;;;;;;;;;;;;;;19.99;48.51;101646.41;7399421;19;1659;-44
2023/03/13 09:28:36;;;;;;;;;;;;;;;20.01;48.46;101627.50;7399520;19;1617;-44
2023/03/13 09:31:11;;;;;;;;;;;;;;;20.13;48.16;101626.53;7399999;19;1728;-44
2023/03/13 09:33:42;;;;;;;;;;;;;;;20.02;48.62;101623.88;7400780;19;1753;-44
2023/03/13 09:36:11;;;;;;;;;;;;;;;20.14;48.39;101643.53;7399561;19;1846;-44
2023/03/13 09:38:39;;;;;;;;;;;;;;;20.09;48.63;101646.56;7400423;19;1646;-44
2023/03/13 09:41:16;;;;;;;;;;;;;;;20.11;48.73;101660.72;7399725;19;2190;-44
2023/03/13 09:43:48;;;;;;;;;;;;;;;20.10;48.74;101625.94;7399738;19;2213;-44
2023/03/13 09:46:20;;;;;;;;;;;;;;;20.13;48.95;101631.06;7400613;19;1973;-44
2023/03/13 09:48:54;;;;;;;;;;;;;;;20.12;49.04;101632.06;7400328;19;2200;-44
2023/03/13 09:51:25;;;;;;;;;;;;;;;20.12;49.10;101635.59;7399689;19;1591;-44
2023/03/13 09:53:55;;;;;;;;;;;;;;;20.17;49.14;101640.59;7399563;19;2065;-43
2023/03/13 09:56:25;;;;;;;;;;;;;;;20.14;49.28;101622.03;7401159;19;1035;-41
2023/03/13 09:58:56;;;;;;;;;;;;;;;20.19;49.34;101611.78;7399056;19;1818;-41
2023/03/13 10:01:27;;;;;;;;;;;;;;;20.24;49.55;101615.81;7404070;19;1843;-41
2023/03/13 10:04:02;;;;;;;;;;;;;;;20.29;49.73;101622.63;7408642;19;1906;-41
2023/03/13 10:06:34;;;;;;;;;;;;;;;20.27;49.63;101610.19;7405150;19;1275;-41
2023/03/13 10:09:03;;;;;;;;;;;;;;;20.15;49.57;101596.88;7406206;19;1917;-41
2023/03/13 10:11:35;;;;;;;;;;;;;;;20.13;49.64;101598.84;7408460;19;1880;-41
2023/03/13 10:14:05;;;;;;;;;;;;;;;20.14;50.11;101606.78;7405621;19;1737;-41
2023/03/13 10:16:36;;;;;;;;;;;;;;;20.17;50.21;101593.09;7407668;19;1678;-41
2023/03/13 10:19:12;;;;;;;;;;;;;;;20.13;50.26;101597.00;7404362;19;1596;-41
2023/03/13 10:21:42;;;;;;;;;;;;;;;20.16;50.25;101588.72;7403457;19;1845;-41
2023/03/13 10:24:15;;;;;;;;;;;;;;;20.22;49.83;101590.91;7403787;19;1790;-41
2023/03/13 10:26:44;;;;;;;;;;;;;;;20.18;49.94;101584.06;7407924;19;1875;-44
2023/03/13 10:29:21;;;;;;;;;;;;;;;20.13;50.02;101585.41;7406870;19;1853;-44
2023/03/13 10:31:55;;;;;;;;;;;;;;;20.09;50.49;101570.53;7403948;19;1007;-41
2023/03/13 10:34:26;;;;;;;;;;;;;;;20.21;49.99;101566.84;7405545;19;1830;-41
2023/03/13 10:36:58;;;;;;;;;;;;;;;20.13;50.20;101558.56;7404983;19;1543;-41
2023/03/13 10:39:28;;;;;;;;;;;;;;;20.13;50.28;101580.88;7406816;19;1693;-42
2023/03/13 10:42:01;;;;;;;;;;;;;;;20.10;50.14;101567.72;7402068;19;1862;-42
2023/03/13 10:44:33;;;;;;;;;;;;;;;20.09;50.30;101568.69;7403452;19;1055;-41
2023/03/13 10:47:03;;;;;;;;;;;;;;;20.06;50.45;101572.47;7405469;19;1672;-41
2023/03/13 10:49:35;;;;;;;;;;;;;;;20.05;50.45;101564.53;7403241;19;941;-41
2023/03/13 10:52:05;;;;;;;;;;;;;;;20.03;50.46;101535.16;7403140;19;976;-42
2023/03/13 10:54:35;;;;;;;;;;;;;;;20.05;50.67;101543.06;7405982;19;1761;-41
2023/03/13 10:57:11;;;;;;;;;;;;;;;20.10;50.55;101538.19;7402586;19;1000;-41
2023/03/13 10:59:45;;;;;;;;;;;;;;;20.04;50.66;101536.84;7402534;19;976;-42
2023/03/13 11:02:22;;;;;;;;;;;;;;;20.10;50.60;101546.25;7401436;19;1856;-41
2023/03/13 11:04:54;;;;;;;;;;;;;;;20.14;50.20;101514.63;7404312;19;2040;-41
2023/03/13 11:07:23;;;;;;;;;;;;;;;20.10;50.58;101511.34;7403800;19;1681;-41
2023/03/13 11:09:59;;;;;;;;;;;;;;;20.15;50.69;101514.47;7400519;19;1122;-42
2023/03/13 11:12:28;;;;;;;;;;;;;;;20.17;50.30;101519.75;7402616;19;1093;-42
2023/03/13 11:15:00;;;;;;;;;;;;;;;20.16;50.45;101512.69;7403310;19;1811;-42
2023/03/13 11:17:32;;;;;;;;;;;;;;;20.07;50.89;101522.31;7405254;19;1495;-44
2023/03/13 11:20:07;;;;;;;;;;;;;;;20.04;51.28;101499.25;7404271;19;1906;-42
2023/03/13 11:22:42;;;;;;;;;;;;;;;20.18;51.78;101499.97;7396619;19;1840;-42
2023/03/13 11:25:23;;;;;;;;;;;;;;;20.25;52.40;101510.09;7401327;19;999;-42
2023/03/13 11:28:09;;;;;;;;;;;;;;;20.28;53.44;101498.25;7401643;19;1056;-42
2023/03/13 11:30:46;;;;;;;;;;;;;;;20.32;54.44;101499.69;7401870;19;1962;-42
2023/03/13 11:33:21;;;;;;;;;;;;;;;20.25;55.30;101488.59;7403003;19;1574;-42
2023/03/13 11:35:55;;;;;;;;;;;;;;;20.24;56.41;101489.56;7404623;19;1878;-41
2023/03/13 11:38:29;;;;;;;;;;;;;;;20.27;56.84;101489.34;7401241;19;1795;-41
2023/03/13 11:41:03;;;;;;;;;;;;;;;20.26;57.23;101487.63;7401531;19;1040;-41
2023/03/13 11:43:39;;;;;;;;;;;;;;;20.29;57.45;101488.34;7398737;19;1973;-42
2023/03/13 11:46:20;;;;;;;;;;;;;;;20.23;57.88;101485.19;7401535;19;980;-42
2023/03/13 11:48:54;;;;;;;;;;;;;;;20.15;58.36;101484.09;7400954;19;1059;-42
2023/03/13 11:51:26;;;;;;;;;;;;;;;20.21;58.21;101468.34;7402145;19;1664;-42
2023/03/13 11:54:05;;;;;;;;;;;;;;;20.25;58.15;101475.19;7400932;19;1038;-42
2023/03/13 11:56:38;;;;;;;;;;;;;;;20.20;58.32;101463.94;7401182;19;1083;-41
2023/03/13 11:59:16;;;;;;;;;;;;;;;20.14;58.50;101461.78;7401021;19;1035;-42
2023/03/13 12:01:48;;;;;;;;;;;;;;;20.15;58.72;101463.47;7400487;19;1858;-42
2023/03/13 12:04:19;;;;;;;;;;;;;;;20.25;58.74;101460.88;7403290;19;1875;-42
2023/03/13 12:06:53;;;;;;;;;;;;;;;20.18;58.82;101462.38;7401013;19;1698;-42
2023/03/13 12:09:25;;;;;;;;;;;;;;;20.22;59.12;101456.63;7401946;19;1419;-42
2023/03/13 12:12:02;;;;;;;;;;;;;;;20.31;58.58;101446.09;7400748;19;1031;-42
2023/03/13 12:14:33;;;;;;;;;;;;;;;20.24;58.76;101441.22;7404302;19;1814;-42
2023/03/13 12:17:02;;;;;;;;;;;;;;;20.34;58.47;101441.31;7400282;19;1019;-42
2023/03/13 12:19:34;;;;;;;;;;;;;;;20.26;58.83;101431.22;7399961;19;1137;-42
2023/03/13 12:22:10;;;;;;;;;;;;;;;20.24;58.88;101427.81;7399368;19;1850;-42
2023/03/13 12:24:41;;;;;;;;;;;;;;;20.29;58.72;101429.25;7399564;19;1836;-42
2023/03/13 12:27:14;;;;;;;;;;;;;;;20.26;58.49;101439.28;7399955;19;1043;-42
2023/03/13 12:29:47;;;;;;;;;;;;;;;20.29;58.55;101443.53;7400167;19;960;-42
2023/03/13 12:32:18;;;;;;;;;;;;;;;20.24;58.90;101440.38;7399391;19;1975;-42
2023/03/13 12:34:53;;;;;;;;;;;;;;;20.18;58.64;101435.53;7399938;19;1026;-42
2023/03/13 12:37:27;;;;;;;;;;;;;;;20.17;58.55;101429.28;7402241;19;1011;-42
2023/03/13 12:40:00;;;;;;;;;;;;;;;20.14;58.67;101440.28;7399682;19;1062;-42
2023/03/13 12:42:36;;;;;;;;;;;;;;;20.14;58.30;101434.91;7400506;19;1861;-42
2023/03/13 12:45:04;;;;;;;;;;;;;;;20.06;57.66;101422.13;7401353;19;1917;-42
2023/03/13 12:47:33;;;;;;;;;;;;;;;20.10;58.15;101428.09;7403712;19;1847;-42
2023/03/13 12:50:19;;;;;;;;;;;;;;;20.10;57.92;101438.84;7399453;19;1807;-42
2023/03/13 12:53:02;;;;;;;;;;;;;;;20.19;57.97;101429.16;7398728;19;972;-42
2023/03/13 12:55:41;;;;;;;;;;;;;;;20.19;57.81;101423.78;7399140;19;1034;-42
2023/03/13 12:58:16;;;;;;;;;;;;;;;20.11;57.66;101413.69;7398602;19;1206;-42
2023/03/13 13:00:46;;;;;;;;;;;;;;;20.13;57.53;101419.78;7403060;19;1825;-42
2023/03/13 13:03:23;;;;;;;;;;;;;;;20.20;57.44;101423.66;7397876;19;1855;-42